createdAt,value
2022-09-28T00:01:27.222Z,58.54
2022-09-28T00:04:15.596Z,60.30
2022-09-28T00:10:49.217Z,65.14
2022-09-28T00:14:13.075Z,64.32
2022-09-28T00:17:35.732Z,63.05
2022-09-28T00:20:41.407Z,64.56
2022-09-28T00:23:48.083Z,63.35
2022-09-28T00:26:54.351Z,63.21
2022-09-28T00:29:44.850Z,63.59
2022-09-28T00:33:46.826Z,63.69
2022-09-28T00:37:29.140Z,64.12
2022-09-28T00:40:53.398Z,61.64
2022-09-28T00:43:44.578Z,60.99
2022-09-28T00:46:20.298Z,60.52
2022-09-28T00:49:03.444Z,59.88
2022-09-28T00:51:32.246Z,57.86
2022-09-28T00:54:04.393Z,57.88
2022-09-28T00:56:34.922Z,59.11
2022-09-28T00:59:05.421Z,60.17
2022-09-28T01:01:37.565Z,64.77
2022-09-28T01:04:06.693Z,66.00
2022-09-28T01:06:39.199Z,61.67
2022-09-28T01:09:11.252Z,58.04
2022-09-28T01:11:40.018Z,56.81
2022-09-28T01:14:14.516Z,57.95
2022-09-28T01:16:48.631Z,59.14
2022-09-28T01:20:21.080Z,60.26
2022-09-28T01:22:51.975Z,66.84
2022-09-28T01:25:34.339Z,67.23
2022-09-28T01:28:14.447Z,63.59
2022-09-28T01:30:51.211Z,61.82
2022-09-28T01:33:26.068Z,60.09
2022-09-28T01:36:05.030Z,58.13
2022-09-28T01:38:55.996Z,57.94
2022-09-28T01:41:29.363Z,58.99
2022-09-28T01:44:04.709Z,65.24
2022-09-28T01:46:39.601Z,64.97
2022-09-28T01:49:24.386Z,64.15
2022-09-28T01:52:17.676Z,65.54
2022-09-28T01:54:54.643Z,62.57
2022-09-28T01:57:37.360Z,61.81
2022-09-28T02:00:10.636Z,59.73
2022-09-28T02:03:05.444Z,57.58
2022-09-28T02:05:56.525Z,57.34
2022-09-28T02:08:38.459Z,58.19
2022-09-28T02:11:20.089Z,59.58
2022-09-28T02:14:11.064Z,65.18
2022-09-28T02:16:41.618Z,68.25
2022-09-28T02:19:32.347Z,63.95
2022-09-28T02:22:09.463Z,60.79
2022-09-28T02:24:53.799Z,57.42
2022-09-28T02:27:31.527Z,56.37
2022-09-28T02:29:59.806Z,57.45
2022-09-28T02:32:32.078Z,58.60
2022-09-28T02:35:01.069Z,60.15
2022-09-28T02:37:29.340Z,66.30
2022-09-28T02:40:04.646Z,67.19
2022-09-28T02:43:03.529Z,63.41
2022-09-28T02:46:02.321Z,60.51
2022-09-28T02:49:20.226Z,57.05
2022-09-28T02:52:19.204Z,57.13
2022-09-28T02:55:09.305Z,58.45
2022-09-28T02:58:06.909Z,59.42
2022-09-28T03:00:54.282Z,64.54
2022-09-28T03:03:46.419Z,64.99
2022-09-28T03:06:41.525Z,64.71
2022-09-28T03:09:34.887Z,67.63
2022-09-28T03:12:13.615Z,65.79
2022-09-28T03:14:45.882Z,63.20
2022-09-28T03:17:14.051Z,60.81
2022-09-28T03:19:42.229Z,60.39
2022-09-28T03:22:11.431Z,59.65
2022-09-28T03:24:39.518Z,60.23
2022-09-28T03:27:10.799Z,60.19
2022-09-28T03:29:39.236Z,57.08
2022-09-28T03:32:07.811Z,56.04
2022-09-28T03:34:35.991Z,56.91
2022-09-28T03:37:04.201Z,58.52
2022-09-28T03:39:32.540Z,60.07
2022-09-28T03:42:01.539Z,64.41
2022-09-28T03:44:31.211Z,66.32
2022-09-28T03:46:59.649Z,63.79
2022-09-28T03:49:27.766Z,63.68
2022-09-28T03:52:02.219Z,62.33
2022-09-28T03:54:30.726Z,62.21
2022-09-28T03:56:58.896Z,60.57
2022-09-28T03:59:27.151Z,57.85
2022-09-28T04:01:55.398Z,57.51
2022-09-28T04:04:24.438Z,58.60
2022-09-28T04:06:56.691Z,59.72
2022-09-28T04:09:26.316Z,63.75
2022-09-28T04:12:03.710Z,65.59
2022-09-28T04:14:34.006Z,64.76
2022-09-28T04:17:02.288Z,61.04
2022-09-28T04:19:32.718Z,57.03
2022-09-28T04:22:14.419Z,55.69
2022-09-28T04:24:43.815Z,56.72
2022-09-28T04:27:30.818Z,58.43
2022-09-28T04:29:59.094Z,64.07
2022-09-28T04:32:27.343Z,67.29
2022-09-28T04:34:57.554Z,64.63
2022-09-28T04:37:25.677Z,61.24
2022-09-28T04:39:53.822Z,57.46
2022-09-28T04:42:24.061Z,56.63
2022-09-28T04:44:52.468Z,57.41
2022-09-28T04:47:20.510Z,58.98
2022-09-28T04:50:08.965Z,63.79
2022-09-28T04:52:57.766Z,65.05
2022-09-28T04:55:29.103Z,63.35
2022-09-28T04:57:57.654Z,64.04
2022-09-28T05:00:30.117Z,65.04
2022-09-28T05:03:08.030Z,64.70
2022-09-28T05:05:59.356Z,62.14
2022-09-28T05:08:41.131Z,60.77
2022-09-28T05:11:14.752Z,57.44
2022-09-28T05:13:45.698Z,56.56
2022-09-28T05:16:16.994Z,57.74
2022-09-28T05:19:04.198Z,58.64
2022-09-28T05:21:33.342Z,59.68
2022-09-28T05:24:07.476Z,64.32
2022-09-28T05:26:37.849Z,66.86
2022-09-28T05:29:08.475Z,64.56
2022-09-28T05:31:46.047Z,62.63
2022-09-28T05:34:34.629Z,57.82
2022-09-28T05:37:02.895Z,56.73
2022-09-28T05:39:31.898Z,57.33
2022-09-28T05:42:01.306Z,59.08
2022-09-28T05:44:30.587Z,59.68
2022-09-28T05:46:58.875Z,64.44
2022-09-28T05:49:29.403Z,66.06
2022-09-28T05:51:57.935Z,62.51
2022-09-28T05:54:26.475Z,61.73
2022-09-28T05:56:55.366Z,61.61
2022-09-28T05:59:27.029Z,57.73
2022-09-28T06:01:55.603Z,56.16
2022-09-28T06:04:23.970Z,57.46
2022-09-28T06:06:55.334Z,58.47
2022-09-28T06:09:25.983Z,60.06
2022-09-28T06:12:04.070Z,63.40
2022-09-28T06:14:42.374Z,65.89
2022-09-28T06:17:13.395Z,66.60
2022-09-28T06:19:43.840Z,63.00
2022-09-28T06:22:30.589Z,61.74
2022-09-28T06:25:09.684Z,57.74
2022-09-28T06:27:42.669Z,55.70
2022-09-28T06:30:15.111Z,56.81
2022-09-28T06:32:47.236Z,58.47
2022-09-28T06:35:17.427Z,63.26
2022-09-28T06:37:48.220Z,66.31
2022-09-28T06:40:23.647Z,62.61
2022-09-28T06:43:10.301Z,57.79
2022-09-28T06:46:01.049Z,55.60
2022-09-28T06:48:50.773Z,56.50
2022-09-28T06:51:26.003Z,58.21
2022-09-28T06:54:27.416Z,63.25
2022-09-28T06:57:29.446Z,65.68
2022-09-28T07:00:00.896Z,61.85
2022-09-28T07:02:40.589Z,59.02
2022-09-28T07:05:30.551Z,55.89
2022-09-28T07:08:22.304Z,56.23
2022-09-28T07:11:08.383Z,58.22
2022-09-28T07:14:03.294Z,64.44
2022-09-28T07:17:03.169Z,63.06
2022-09-28T07:19:25.020Z,60.15
2022-09-28T07:22:07.565Z,57.80
2022-09-28T07:24:49.400Z,58.64
2022-09-28T07:27:39.677Z,60.58
2022-09-28T07:30:34.619Z,63.05
2022-09-28T07:33:32.369Z,63.92
2022-09-28T07:36:21.133Z,63.71
2022-09-28T07:38:54.135Z,63.63
2022-09-28T07:41:35.159Z,63.39
2022-09-28T07:44:17.739Z,63.85
2022-09-28T07:46:54.617Z,61.76
2022-09-28T07:49:29.871Z,58.68
2022-09-28T07:52:12.687Z,58.75
2022-09-28T07:55:07.187Z,60.19
2022-09-28T07:58:03.693Z,61.62
2022-09-28T08:01:13.487Z,63.22
2022-09-28T08:03:49.602Z,58.95
2022-09-28T08:06:19.020Z,57.07
2022-09-28T08:08:47.930Z,58.90
2022-09-28T08:11:19.053Z,60.29
2022-09-28T08:14:18.648Z,62.06
2022-09-28T08:17:08.433Z,63.10
2022-09-28T08:20:02.889Z,57.68
2022-09-28T08:22:32.692Z,56.87
2022-09-28T08:25:02.288Z,58.88
2022-09-28T08:27:31.507Z,59.86
2022-09-28T08:30:01.769Z,60.54
2022-09-28T08:32:49.782Z,61.34
2022-09-28T08:35:38.355Z,62.59
2022-09-28T08:38:33.999Z,63.69
2022-09-28T08:41:45.733Z,57.36
2022-09-28T08:44:52.747Z,56.84
2022-09-28T08:48:14.621Z,59.09
2022-09-28T08:51:25.095Z,59.70
2022-09-28T08:54:26.363Z,60.15
2022-09-28T08:57:22.186Z,60.21
2022-09-28T08:59:56.251Z,60.32
2022-09-28T09:02:39.847Z,60.53
2022-09-28T09:05:21.298Z,60.56
2022-09-28T09:08:30.367Z,60.84
2022-09-28T09:11:04.370Z,60.60
2022-09-28T09:13:58.823Z,60.63
2022-09-28T09:17:00.443Z,60.83
2022-09-28T09:20:12.922Z,60.47
2022-09-28T09:23:00.459Z,60.69
2022-09-28T09:25:43.946Z,60.54
2022-09-28T09:28:56.413Z,60.53
2022-09-28T09:32:08.251Z,60.12
2022-09-28T09:34:46.651Z,60.43
2022-09-28T09:38:01.313Z,61.24
2022-09-28T09:41:18.228Z,61.30
2022-09-28T09:44:19.170Z,61.32
2022-09-28T09:47:25.257Z,61.40
2022-09-28T09:50:12.747Z,61.18
2022-09-28T09:52:58.976Z,61.45
2022-09-28T09:55:57.933Z,60.97
2022-09-28T09:58:50.673Z,60.78
2022-09-28T10:01:35.002Z,60.56
2022-09-28T10:04:27.705Z,60.01
2022-09-28T10:07:06.182Z,59.78
2022-09-28T10:09:51.744Z,59.62
2022-09-28T10:12:34.641Z,59.95
2022-09-28T10:15:08.030Z,59.61
2022-09-28T10:17:51.000Z,59.41
2022-09-28T10:20:58.525Z,59.61
2022-09-28T10:23:38.996Z,58.98
2022-09-28T10:26:18.748Z,59.10
2022-09-28T10:29:04.497Z,59.63
2022-09-28T10:31:38.889Z,58.97
2022-09-28T10:34:18.149Z,59.06
2022-09-28T10:37:01.691Z,58.92
2022-09-28T10:39:47.293Z,59.81
2022-09-28T10:42:26.406Z,60.65
2022-09-28T10:45:10.048Z,61.66
2022-09-28T10:47:45.344Z,62.58
2022-09-28T10:50:27.167Z,61.06
2022-09-28T10:53:21.022Z,57.91
2022-09-28T10:56:21.835Z,58.95
2022-09-28T10:58:53.664Z,60.64
2022-09-28T11:01:33.834Z,64.13
2022-09-28T11:04:11.305Z,68.18
2022-09-28T11:06:42.456Z,66.63
2022-09-28T11:09:30.874Z,65.82
2022-09-28T11:12:07.343Z,64.14
2022-09-28T11:14:44.248Z,62.63
2022-09-28T11:17:34.364Z,61.80
2022-09-28T11:20:27.366Z,61.17
2022-09-28T11:23:18.593Z,61.56
2022-09-28T11:26:05.734Z,60.66
2022-09-28T11:28:42.065Z,58.59
2022-09-28T11:31:17.843Z,57.96
2022-09-28T11:34:31.441Z,57.70
2022-09-28T11:37:25.264Z,59.04
2022-09-28T11:40:30.015Z,59.97
2022-09-28T11:43:13.328Z,62.89
2022-09-28T11:45:50.581Z,65.41
2022-09-28T11:48:29.297Z,65.77
2022-09-28T11:51:10.014Z,64.39
2022-09-28T11:53:51.406Z,63.27
2022-09-28T11:56:55.189Z,63.87
2022-09-28T11:59:36.990Z,65.24
2022-09-28T12:02:34.955Z,64.54
2022-09-28T12:05:33.750Z,63.17
2022-09-28T12:08:09.802Z,62.71
2022-09-28T12:11:13.701Z,63.09
2022-09-28T12:14:26.519Z,62.91
2022-09-28T12:17:08.624Z,62.74
2022-09-28T12:19:51.561Z,63.23
2022-09-28T12:22:40.113Z,62.16
2022-09-28T12:25:19.925Z,59.93
2022-09-28T12:28:05.097Z,56.19
2022-09-28T12:30:42.992Z,55.62
2022-09-28T12:33:17.387Z,56.00
2022-09-28T12:36:11.502Z,57.57
2022-09-28T12:39:27.191Z,57.59
2022-09-28T12:42:35.621Z,58.52
2022-09-28T12:45:20.983Z,64.31
2022-09-28T12:48:29.111Z,66.32
2022-09-28T12:51:43.795Z,62.87
2022-09-28T12:54:31.560Z,60.36
2022-09-28T12:57:12.710Z,56.69
2022-09-28T13:00:16.043Z,55.46
2022-09-28T13:03:22.597Z,55.79
2022-09-28T13:06:19.556Z,58.19
2022-09-28T13:09:17.445Z,58.37
2022-09-28T13:12:05.750Z,63.36
2022-09-28T13:15:17.827Z,65.92
2022-09-28T13:18:03.320Z,62.09
2022-09-28T13:20:56.623Z,58.39
2022-09-28T13:23:50.077Z,55.99
2022-09-28T13:26:33.668Z,56.39
2022-09-28T13:29:19.471Z,57.66
2022-09-28T13:31:59.261Z,58.52
2022-09-28T13:34:35.070Z,62.71
2022-09-28T13:37:26.435Z,64.18
2022-09-28T13:40:42.036Z,65.13
2022-09-28T13:43:33.062Z,63.11
2022-09-28T13:46:16.544Z,60.28
2022-09-28T13:49:18.398Z,56.46
2022-09-28T13:51:59.479Z,56.43
2022-09-28T13:55:03.447Z,57.28
2022-09-28T13:58:15.848Z,57.70
2022-09-28T14:01:03.973Z,58.58
2022-09-28T14:04:14.344Z,62.74
2022-09-28T14:07:20.362Z,65.40
2022-09-28T14:10:23.039Z,64.36
2022-09-28T14:13:15.448Z,63.94
2022-09-28T14:15:49.583Z,60.92
2022-09-28T14:18:56.742Z,60.23
2022-09-28T14:22:10.572Z,58.26
2022-09-28T14:25:40.522Z,57.89
2022-09-28T14:28:29.532Z,58.20
2022-09-28T14:31:16.796Z,62.79
2022-09-28T14:34:00.077Z,64.53
2022-09-28T14:37:01.551Z,62.96
2022-09-28T14:39:53.638Z,65.08
2022-09-28T14:42:29.534Z,62.35
2022-09-28T14:45:07.309Z,60.48
2022-09-28T14:47:43.371Z,60.95
2022-09-28T14:50:33.588Z,57.32
2022-09-28T14:53:14.725Z,56.43
2022-09-28T14:55:55.490Z,57.47
2022-09-28T14:58:31.296Z,58.58
2022-09-28T15:01:18.457Z,59.85
2022-09-28T15:03:57.332Z,65.92
2022-09-28T15:06:51.539Z,66.62
2022-09-28T15:09:42.254Z,65.45
2022-09-28T15:12:19.992Z,61.54
2022-09-28T15:15:01.995Z,60.42
2022-09-28T15:17:41.997Z,58.41
2022-09-28T15:20:31.866Z,57.60
2022-09-28T15:23:06.192Z,59.45
2022-09-28T15:25:39.533Z,64.78
2022-09-28T15:28:23.373Z,66.20
2022-09-28T15:31:02.103Z,64.25
2022-09-28T15:33:55.485Z,62.19
2022-09-28T15:36:33.191Z,57.38
2022-09-28T15:39:18.445Z,57.42
2022-09-28T15:41:52.725Z,60.62
2022-09-28T15:44:40.053Z,63.27
2022-09-28T15:47:24.833Z,65.72
2022-09-28T15:50:11.266Z,64.17
2022-09-28T15:52:48.025Z,61.97
2022-09-28T15:55:29.052Z,57.95
2022-09-28T15:58:24.832Z,56.84
2022-09-28T16:01:41.852Z,57.68
2022-09-28T16:04:54.189Z,59.88
2022-09-28T16:07:56.406Z,66.41
2022-09-28T16:10:35.207Z,66.34
2022-09-28T16:13:19.829Z,61.37
2022-09-28T16:16:00.980Z,57.74
2022-09-28T16:18:37.016Z,57.49
2022-09-28T16:21:28.540Z,58.81
2022-09-28T16:24:03.258Z,64.80
2022-09-28T16:26:40.197Z,64.51
2022-09-28T16:29:41.396Z,60.65
2022-09-28T16:32:27.798Z,56.52
2022-09-28T16:35:14.661Z,57.10
2022-09-28T16:37:55.367Z,58.54
2022-09-28T16:40:28.887Z,59.71
2022-09-28T16:43:04.051Z,64.66
2022-09-28T16:45:36.296Z,64.92
2022-09-28T16:48:06.745Z,61.11
2022-09-28T16:50:39.051Z,58.01
2022-09-28T16:53:38.516Z,57.59
2022-09-28T16:56:11.088Z,58.48
2022-09-28T16:58:43.363Z,59.89
2022-09-28T17:01:14.703Z,64.28
2022-09-28T17:03:47.821Z,66.29
2022-09-28T17:06:19.371Z,64.08
2022-09-28T17:08:50.803Z,63.24
2022-09-28T17:11:25.055Z,62.33
2022-09-28T17:14:02.216Z,62.83
2022-09-28T17:17:07.826Z,61.85
2022-09-28T17:19:31.058Z,61.95
2022-09-28T17:22:04.926Z,60.27
2022-09-28T17:24:39.376Z,57.26
2022-09-28T17:27:18.149Z,56.79
2022-09-28T17:29:51.506Z,57.95
2022-09-28T17:32:23.532Z,59.13
2022-09-28T17:35:06.529Z,63.15
2022-09-28T17:37:48.698Z,65.58
2022-09-28T17:40:29.877Z,62.24
2022-09-28T17:43:11.066Z,61.37
2022-09-28T17:45:43.750Z,59.78
2022-09-28T17:48:18.590Z,57.25
2022-09-28T17:50:52.453Z,57.07
2022-09-28T17:53:27.142Z,58.34
2022-09-28T17:56:01.500Z,59.48
2022-09-28T17:58:33.920Z,63.64
2022-09-28T18:01:05.744Z,66.16
2022-09-28T18:03:37.673Z,63.52
2022-09-28T18:06:16.056Z,61.92
2022-09-28T18:08:49.014Z,61.55
2022-09-28T18:11:25.533Z,60.61
2022-09-28T18:14:01.449Z,60.89
2022-09-28T18:16:36.786Z,60.50
2022-09-28T18:19:14.288Z,60.20
2022-09-28T18:21:50.795Z,61.88
2022-09-28T18:24:24.326Z,60.51
2022-09-28T18:26:56.334Z,57.33
2022-09-28T18:29:32.915Z,56.73
2022-09-28T18:32:07.006Z,58.22
2022-09-28T18:34:42.782Z,59.32
2022-09-28T18:37:17.771Z,60.24
2022-09-28T18:39:51.873Z,64.03
2022-09-28T18:42:27.479Z,65.64
2022-09-28T18:45:05.413Z,63.12
2022-09-28T18:47:42.425Z,60.89
2022-09-28T18:50:17.965Z,60.14
2022-09-28T18:52:50.927Z,57.07
2022-09-28T18:55:28.015Z,56.40
2022-09-28T18:58:04.363Z,57.47
2022-09-28T19:00:46.092Z,58.09
2022-09-28T19:03:22.562Z,59.26
2022-09-28T19:06:04.815Z,63.28
2022-09-28T19:08:42.497Z,66.24
2022-09-28T19:11:21.476Z,64.01
2022-09-28T19:13:57.443Z,60.68
2022-09-28T19:16:41.819Z,58.21
2022-09-28T19:19:24.900Z,56.27
2022-09-28T19:21:58.211Z,57.77
2022-09-28T19:24:32.833Z,58.37
2022-09-28T19:27:20.953Z,59.27
2022-09-28T19:29:55.190Z,63.00
2022-09-28T19:32:26.692Z,66.48
2022-09-28T19:35:05.119Z,64.41
2022-09-28T19:37:43.991Z,62.55
2022-09-28T19:40:19.824Z,61.70
2022-09-28T19:42:53.752Z,61.19
2022-09-28T19:45:26.223Z,60.29
2022-09-28T19:48:04.125Z,59.93
2022-09-28T19:50:37.742Z,58.39
2022-09-28T19:53:13.631Z,57.12
2022-09-28T19:55:43.649Z,58.01
2022-09-28T19:58:13.047Z,58.77
2022-09-28T20:00:43.020Z,62.50
2022-09-28T20:03:12.777Z,65.24
2022-09-28T20:05:44.513Z,64.72
2022-09-28T20:08:17.370Z,63.01
2022-09-28T20:10:55.805Z,60.68
2022-09-28T20:13:39.794Z,57.87
2022-09-28T20:16:14.930Z,57.19
2022-09-28T20:18:51.812Z,58.27
2022-09-28T20:21:26.841Z,59.29
2022-09-28T20:23:59.188Z,62.79
2022-09-28T20:26:32.662Z,64.77
2022-09-28T20:29:09.877Z,63.15
2022-09-28T20:31:43.337Z,62.78
2022-09-28T20:34:14.894Z,62.59
2022-09-28T20:36:45.738Z,62.45
2022-09-28T20:39:17.916Z,62.76
2022-09-28T20:41:50.787Z,62.08
2022-09-28T20:44:22.710Z,57.11
2022-09-28T20:46:58.084Z,55.27
2022-09-28T20:49:32.619Z,56.07
2022-09-28T20:52:09.499Z,57.16
2022-09-28T20:54:43.881Z,58.09
2022-09-28T20:57:25.714Z,59.48
2022-09-28T20:59:56.736Z,64.76
2022-09-28T21:02:29.250Z,66.29
2022-09-28T21:04:59.552Z,61.47
2022-09-28T21:07:31.990Z,56.88
2022-09-28T21:10:06.922Z,55.77
2022-09-28T21:12:38.727Z,56.56
2022-09-28T21:15:08.787Z,57.37
2022-09-28T21:17:44.834Z,58.43
2022-09-28T21:20:16.635Z,58.96
2022-09-28T21:22:46.805Z,63.78
2022-09-28T21:25:20.618Z,66.71
2022-09-28T21:27:56.735Z,63.56
2022-09-28T21:30:32.717Z,60.27
2022-09-28T21:33:03.249Z,56.34
2022-09-28T21:35:36.385Z,55.26
2022-09-28T21:38:09.354Z,56.70
2022-09-28T21:40:45.450Z,57.90
2022-09-28T21:43:17.516Z,59.12
2022-09-28T21:45:51.439Z,62.17
2022-09-28T21:48:24.068Z,66.73
2022-09-28T21:51:02.448Z,63.55
2022-09-28T21:53:34.754Z,60.35
2022-09-28T21:56:10.131Z,56.78
2022-09-28T21:58:40.793Z,55.56
2022-09-28T22:01:17.274Z,56.35
2022-09-28T22:03:54.179Z,57.27
2022-09-28T22:06:28.093Z,58.65
2022-09-28T22:08:57.622Z,59.88
2022-09-28T22:11:31.462Z,63.77
2022-09-28T22:14:02.182Z,66.49
2022-09-28T22:16:33.055Z,64.07
2022-09-28T22:19:02.135Z,61.53
2022-09-28T22:21:34.741Z,59.74
2022-09-28T22:24:07.612Z,57.23
2022-09-28T22:26:38.381Z,56.49
2022-09-28T22:29:10.689Z,57.13
2022-09-28T22:31:42.324Z,58.06
2022-09-28T22:34:14.692Z,59.10
2022-09-28T22:36:44.193Z,60.10
2022-09-28T22:39:16.225Z,64.57
2022-09-28T22:41:46.346Z,67.07
2022-09-28T22:44:15.005Z,63.99
2022-09-28T22:46:44.251Z,62.51
2022-09-28T22:49:13.010Z,62.02
2022-09-28T22:51:41.190Z,61.64
2022-09-28T22:54:10.916Z,61.09
2022-09-28T22:56:39.170Z,60.42
2022-09-28T22:59:07.360Z,59.91
2022-09-28T23:01:35.406Z,58.15
2022-09-28T23:04:03.591Z,57.03
2022-09-28T23:06:33.229Z,57.99
2022-09-28T23:09:02.090Z,58.90
2022-09-28T23:11:30.477Z,59.79
2022-09-28T23:14:01.922Z,63.55
2022-09-28T23:16:30.444Z,65.71
2022-09-28T23:19:01.227Z,63.61
2022-09-28T23:21:29.512Z,61.47
2022-09-28T23:24:01.716Z,60.36
2022-09-28T23:26:32.766Z,59.59
2022-09-28T23:29:00.998Z,57.97
2022-09-28T23:31:34.175Z,57.46
2022-09-28T23:34:06.569Z,57.92
2022-09-28T23:36:35.252Z,59.11
2022-09-28T23:39:04.246Z,59.71
2022-09-28T23:41:35.534Z,64.16
2022-09-28T23:44:04.186Z,65.45
2022-09-28T23:46:32.715Z,63.87
2022-09-28T23:49:00.964Z,62.31
2022-09-28T23:51:29.106Z,62.35
2022-09-28T23:54:03.901Z,61.68
2022-09-28T23:56:42.334Z,60.34
2022-09-28T23:59:10.525Z,59.91
